sensor_id;sensor_type;location;lat;lon;timestamp;P1;durP1;ratioP1;P2;durP2;ratioP2
2860;SDS011;1438;50.922;6.704;2023-08-01T00:01:24;0.90;;;0.70;;
2860;SDS011;1438;50.922;6.704;2023-08-01T00:03:49;2.10;;;0.80;;
2860;SDS011;1438;50.922;6.704;2023-08-01T00:06:15;4.40;;;0.80;;
2860;SDS011;1438;50.922;6.704;2023-08-01T00:08:40;1.40;;;0.90;;
2860;SDS011;1438;50.922;6.704;2023-08-01T00:11:06;0.93;;;0.80;;
2860;SDS011;1438;50.922;6.704;2023-08-01T00:13:32;3.30;;;0.80;;
2860;SDS011;1438;50.922;6.704;2023-08-01T00:15:57;0.97;;;0.73;;
2860;SDS011;1438;50.922;6.704;2023-08-01T00:18:23;2.20;;;0.80;;
2860;SDS011;1438;50.922;6.704;2023-08-01T00:20:51;0.90;;;0.80;;
2860;SDS011;1438;50.922;6.704;2023-08-01T00:23:17;2.83;;;0.80;;
2860;SDS011;1438;50.922;6.704;2023-08-01T00:25:43;4.07;;;0.77;;
2860;SDS011;1438;50.922;6.704;2023-08-01T00:28:09;1.77;;;0.70;;
2860;SDS011;1438;50.922;6.704;2023-08-01T00:30:34;2.20;;;0.80;;
2860;SDS011;1438;50.922;6.704;2023-08-01T00:33:00;0.90;;;0.73;;
2860;SDS011;1438;50.922;6.704;2023-08-01T00:35:25;1.00;;;0.73;;
2860;SDS011;1438;50.922;6.704;2023-08-01T00:37:51;1.80;;;0.70;;
2860;SDS011;1438;50.922;6.704;2023-08-01T00:40:17;1.83;;;0.80;;
2860;SDS011;1438;50.922;6.704;2023-08-01T00:42:42;4.30;;;0.60;;
2860;SDS011;1438;50.922;6.704;2023-08-01T00:45:08;1.07;;;0.73;;
2860;SDS011;1438;50.922;6.704;2023-08-01T00:47:34;1.00;;;0.70;;
2860;SDS011;1438;50.922;6.704;2023-08-01T00:50:00;2.07;;;0.57;;
2860;SDS011;1438;50.922;6.704;2023-08-01T00:52:27;1.40;;;0.60;;
2860;SDS011;1438;50.922;6.704;2023-08-01T00:54:53;1.07;;;0.70;;
2860;SDS011;1438;50.922;6.704;2023-08-01T00:57:19;1.40;;;0.60;;
2860;SDS011;1438;50.922;6.704;2023-08-01T00:59:45;1.63;;;0.50;;
2860;SDS011;1438;50.922;6.704;2023-08-01T01:02:11;1.23;;;0.60;;
2860;SDS011;1438;50.922;6.704;2023-08-01T01:04:36;0.60;;;0.50;;
2860;SDS011;1438;50.922;6.704;2023-08-01T01:07:03;2.10;;;0.70;;
2860;SDS011;1438;50.922;6.704;2023-08-01T01:09:31;1.27;;;0.60;;
2860;SDS011;1438;50.922;6.704;2023-08-01T01:12:00;1.77;;;0.80;;
2860;SDS011;1438;50.922;6.704;2023-08-01T01:14:26;1.13;;;0.57;;
2860;SDS011;1438;50.922;6.704;2023-08-01T01:16:52;5.13;;;0.60;;
2860;SDS011;1438;50.922;6.704;2023-08-01T01:19:18;2.10;;;0.70;;
2860;SDS011;1438;50.922;6.704;2023-08-01T01:21:43;1.90;;;0.80;;
2860;SDS011;1438;50.922;6.704;2023-08-01T01:24:10;2.13;;;0.60;;
2860;SDS011;1438;50.922;6.704;2023-08-01T01:26:37;0.80;;;0.70;;
2860;SDS011;1438;50.922;6.704;2023-08-01T01:29:07;1.90;;;0.70;;
2860;SDS011;1438;50.922;6.704;2023-08-01T01:31:35;4.63;;;0.80;;
2860;SDS011;1438;50.922;6.704;2023-08-01T01:34:02;1.10;;;0.70;;
2860;SDS011;1438;50.922;6.704;2023-08-01T01:36:28;1.73;;;0.90;;
2860;SDS011;1438;50.922;6.704;2023-08-01T01:38:54;4.07;;;0.70;;
2860;SDS011;1438;50.922;6.704;2023-08-01T01:41:20;2.30;;;0.70;;
2860;SDS011;1438;50.922;6.704;2023-08-01T01:43:47;1.13;;;0.70;;
2860;SDS011;1438;50.922;6.704;2023-08-01T01:46:13;3.37;;;0.70;;
2860;SDS011;1438;50.922;6.704;2023-08-01T01:48:38;2.50;;;1.00;;
2860;SDS011;1438;50.922;6.704;2023-08-01T01:51:04;1.17;;;0.80;;
2860;SDS011;1438;50.922;6.704;2023-08-01T01:53:29;1.57;;;1.00;;
2860;SDS011;1438;50.922;6.704;2023-08-01T01:55:55;1.63;;;1.10;;
2860;SDS011;1438;50.922;6.704;2023-08-01T01:58:20;5.53;;;2.30;;
2860;SDS011;1438;50.922;6.704;2023-08-01T02:00:46;4.40;;;1.33;;
2860;SDS011;1438;50.922;6.704;2023-08-01T02:03:13;1.20;;;0.80;;
2860;SDS011;1438;50.922;6.704;2023-08-01T02:05:41;0.90;;;0.77;;
2860;SDS011;1438;50.922;6.704;2023-08-01T02:08:07;1.10;;;0.90;;
2860;SDS011;1438;50.922;6.704;2023-08-01T02:10:33;2.87;;;1.27;;
2860;SDS011;1438;50.922;6.704;2023-08-01T02:12:58;1.67;;;1.30;;
2860;SDS011;1438;50.922;6.704;2023-08-01T02:15:24;1.30;;;0.90;;
2860;SDS011;1438;50.922;6.704;2023-08-01T02:17:49;1.67;;;1.57;;
2860;SDS011;1438;50.922;6.704;2023-08-01T02:20:15;3.67;;;1.20;;
2860;SDS011;1438;50.922;6.704;2023-08-01T02:22:41;4.27;;;1.40;;
2860;SDS011;1438;50.922;6.704;2023-08-01T02:25:07;1.37;;;1.27;;
2860;SDS011;1438;50.922;6.704;2023-08-01T02:27:33;1.77;;;1.63;;
2860;SDS011;1438;50.922;6.704;2023-08-01T02:29:58;3.37;;;1.33;;
2860;SDS011;1438;50.922;6.704;2023-08-01T02:32:24;5.00;;;1.67;;
2860;SDS011;1438;50.922;6.704;2023-08-01T02:34:49;3.50;;;1.43;;
2860;SDS011;1438;50.922;6.704;2023-08-01T02:37:15;1.43;;;1.33;;
2860;SDS011;1438;50.922;6.704;2023-08-01T02:39:40;1.67;;;1.33;;
2860;SDS011;1438;50.922;6.704;2023-08-01T02:42:06;3.77;;;1.60;;
2860;SDS011;1438;50.922;6.704;2023-08-01T02:44:31;2.20;;;1.67;;
2860;SDS011;1438;50.922;6.704;2023-08-01T02:46:57;4.27;;;1.50;;
2860;SDS011;1438;50.922;6.704;2023-08-01T02:49:23;3.50;;;1.90;;
2860;SDS011;1438;50.922;6.704;2023-08-01T02:51:48;6.10;;;1.70;;
2860;SDS011;1438;50.922;6.704;2023-08-01T02:54:14;1.80;;;1.70;;
2860;SDS011;1438;50.922;6.704;2023-08-01T02:56:39;2.03;;;1.87;;
2860;SDS011;1438;50.922;6.704;2023-08-01T02:59:06;2.30;;;1.87;;
2860;SDS011;1438;50.922;6.704;2023-08-01T03:01:34;3.20;;;2.63;;
2860;SDS011;1438;50.922;6.704;2023-08-01T03:04:01;2.50;;;2.30;;
2860;SDS011;1438;50.922;6.704;2023-08-01T03:06:27;3.27;;;3.07;;
2860;SDS011;1438;50.922;6.704;2023-08-01T03:08:53;4.20;;;2.13;;
2860;SDS011;1438;50.922;6.704;2023-08-01T03:11:18;2.47;;;2.27;;
2860;SDS011;1438;50.922;6.704;2023-08-01T03:13:44;6.80;;;3.80;;
2860;SDS011;1438;50.922;6.704;2023-08-01T03:16:09;4.93;;;2.60;;
2860;SDS011;1438;50.922;6.704;2023-08-01T03:18:35;3.63;;;3.30;;
2860;SDS011;1438;50.922;6.704;2023-08-01T03:21:00;8.67;;;3.23;;
2860;SDS011;1438;50.922;6.704;2023-08-01T03:23:28;7.90;;;3.97;;
2860;SDS011;1438;50.922;6.704;2023-08-01T03:25:57;12.10;;;4.83;;
2860;SDS011;1438;50.922;6.704;2023-08-01T03:28:24;7.30;;;4.00;;
2860;SDS011;1438;50.922;6.704;2023-08-01T03:30:51;6.93;;;4.30;;
2860;SDS011;1438;50.922;6.704;2023-08-01T03:33:18;6.90;;;4.77;;
2860;SDS011;1438;50.922;6.704;2023-08-01T03:35:47;7.60;;;6.20;;
2860;SDS011;1438;50.922;6.704;2023-08-01T03:38:12;13.20;;;6.37;;
2860;SDS011;1438;50.922;6.704;2023-08-01T03:40:38;16.10;;;6.90;;
2860;SDS011;1438;50.922;6.704;2023-08-01T03:43:04;10.27;;;6.97;;
2860;SDS011;1438;50.922;6.704;2023-08-01T03:45:31;8.20;;;6.70;;
2860;SDS011;1438;50.922;6.704;2023-08-01T03:47:56;11.40;;;7.70;;
2860;SDS011;1438;50.922;6.704;2023-08-01T03:50:22;13.17;;;8.27;;
2860;SDS011;1438;50.922;6.704;2023-08-01T03:52:48;9.70;;;7.30;;
2860;SDS011;1438;50.922;6.704;2023-08-01T03:55:13;9.67;;;6.93;;
2860;SDS011;1438;50.922;6.704;2023-08-01T03:57:39;16.60;;;7.80;;
2860;SDS011;1438;50.922;6.704;2023-08-01T04:00:05;11.23;;;6.80;;
2860;SDS011;1438;50.922;6.704;2023-08-01T04:02:38;8.40;;;7.17;;
2860;SDS011;1438;50.922;6.704;2023-08-01T04:05:07;11.33;;;6.73;;
2860;SDS011;1438;50.922;6.704;2023-08-01T04:07:33;12.37;;;7.97;;
2860;SDS011;1438;50.922;6.704;2023-08-01T04:10:00;11.57;;;8.13;;
2860;SDS011;1438;50.922;6.704;2023-08-01T04:12:26;14.37;;;8.30;;
2860;SDS011;1438;50.922;6.704;2023-08-01T04:14:51;11.10;;;7.73;;
2860;SDS011;1438;50.922;6.704;2023-08-01T04:17:17;11.10;;;7.13;;
2860;SDS011;1438;50.922;6.704;2023-08-01T04:19:42;12.10;;;8.70;;
2860;SDS011;1438;50.922;6.704;2023-08-01T04:22:08;14.20;;;7.50;;
2860;SDS011;1438;50.922;6.704;2023-08-01T04:24:34;12.57;;;8.30;;
2860;SDS011;1438;50.922;6.704;2023-08-01T04:26:59;9.40;;;7.30;;
2860;SDS011;1438;50.922;6.704;2023-08-01T04:29:25;10.07;;;8.60;;
2860;SDS011;1438;50.922;6.704;2023-08-01T04:31:51;13.60;;;8.27;;
2860;SDS011;1438;50.922;6.704;2023-08-01T04:34:16;11.17;;;7.43;;
2860;SDS011;1438;50.922;6.704;2023-08-01T04:36:42;20.30;;;7.63;;
2860;SDS011;1438;50.922;6.704;2023-08-01T04:39:07;10.93;;;8.17;;
2860;SDS011;1438;50.922;6.704;2023-08-01T04:41:33;12.93;;;7.53;;
2860;SDS011;1438;50.922;6.704;2023-08-01T04:43:58;10.77;;;7.60;;
2860;SDS011;1438;50.922;6.704;2023-08-01T04:46:24;12.73;;;8.73;;
2860;SDS011;1438;50.922;6.704;2023-08-01T04:48:49;9.93;;;7.50;;
2860;SDS011;1438;50.922;6.704;2023-08-01T04:51:15;8.07;;;7.10;;
2860;SDS011;1438;50.922;6.704;2023-08-01T04:53:40;11.70;;;7.60;;
2860;SDS011;1438;50.922;6.704;2023-08-01T04:56:06;8.27;;;6.80;;
2860;SDS011;1438;50.922;6.704;2023-08-01T04:58:31;10.97;;;6.87;;
2860;SDS011;1438;50.922;6.704;2023-08-01T05:00:57;10.77;;;7.10;;
2860;SDS011;1438;50.922;6.704;2023-08-01T05:03:23;12.67;;;7.93;;
2860;SDS011;1438;50.922;6.704;2023-08-01T05:05:48;12.20;;;7.23;;
2860;SDS011;1438;50.922;6.704;2023-08-01T05:08:14;10.40;;;6.37;;
2860;SDS011;1438;50.922;6.704;2023-08-01T05:10:39;12.10;;;6.57;;
2860;SDS011;1438;50.922;6.704;2023-08-01T05:13:05;11.23;;;6.97;;
2860;SDS011;1438;50.922;6.704;2023-08-01T05:15:31;9.77;;;7.00;;
2860;SDS011;1438;50.922;6.704;2023-08-01T05:17:56;11.37;;;7.50;;
2860;SDS011;1438;50.922;6.704;2023-08-01T05:20:22;11.13;;;6.87;;
2860;SDS011;1438;50.922;6.704;2023-08-01T05:22:47;11.93;;;6.80;;
2860;SDS011;1438;50.922;6.704;2023-08-01T05:25:13;7.73;;;6.57;;
2860;SDS011;1438;50.922;6.704;2023-08-01T05:27:39;11.27;;;6.50;;
2860;SDS011;1438;50.922;6.704;2023-08-01T05:30:04;9.37;;;5.97;;
2860;SDS011;1438;50.922;6.704;2023-08-01T05:32:30;11.50;;;8.27;;
2860;SDS011;1438;50.922;6.704;2023-08-01T05:34:56;13.33;;;7.70;;
2860;SDS011;1438;50.922;6.704;2023-08-01T05:37:21;9.83;;;6.30;;
2860;SDS011;1438;50.922;6.704;2023-08-01T05:39:47;8.47;;;7.30;;
2860;SDS011;1438;50.922;6.704;2023-08-01T05:42:12;29.33;;;7.70;;
2860;SDS011;1438;50.922;6.704;2023-08-01T05:44:38;12.53;;;7.80;;
2860;SDS011;1438;50.922;6.704;2023-08-01T05:47:04;11.80;;;7.97;;
2860;SDS011;1438;50.922;6.704;2023-08-01T05:49:30;9.40;;;8.33;;
2860;SDS011;1438;50.922;6.704;2023-08-01T05:51:55;9.93;;;7.10;;
2860;SDS011;1438;50.922;6.704;2023-08-01T05:54:21;8.90;;;6.50;;
2860;SDS011;1438;50.922;6.704;2023-08-01T05:56:46;12.30;;;6.60;;
2860;SDS011;1438;50.922;6.704;2023-08-01T05:59:12;13.23;;;7.07;;
2860;SDS011;1438;50.922;6.704;2023-08-01T06:01:38;9.87;;;6.90;;
2860;SDS011;1438;50.922;6.704;2023-08-01T06:04:03;10.63;;;6.67;;
2860;SDS011;1438;50.922;6.704;2023-08-01T06:06:29;11.97;;;6.80;;
2860;SDS011;1438;50.922;6.704;2023-08-01T06:08:54;11.30;;;6.57;;
2860;SDS011;1438;50.922;6.704;2023-08-01T06:11:21;10.17;;;6.53;;
2860;SDS011;1438;50.922;6.704;2023-08-01T06:13:46;9.20;;;5.47;;
2860;SDS011;1438;50.922;6.704;2023-08-01T06:16:12;12.97;;;7.10;;
2860;SDS011;1438;50.922;6.704;2023-08-01T06:18:37;12.23;;;8.07;;
2860;SDS011;1438;50.922;6.704;2023-08-01T06:21:03;11.90;;;6.77;;
2860;SDS011;1438;50.922;6.704;2023-08-01T06:23:28;8.73;;;5.33;;
2860;SDS011;1438;50.922;6.704;2023-08-01T06:25:54;12.90;;;7.40;;
2860;SDS011;1438;50.922;6.704;2023-08-01T06:28:20;13.53;;;5.73;;
2860;SDS011;1438;50.922;6.704;2023-08-01T06:30:45;11.57;;;6.23;;
2860;SDS011;1438;50.922;6.704;2023-08-01T06:33:11;12.67;;;6.67;;
2860;SDS011;1438;50.922;6.704;2023-08-01T06:35:37;9.70;;;6.40;;
2860;SDS011;1438;50.922;6.704;2023-08-01T06:38:02;12.70;;;6.53;;
2860;SDS011;1438;50.922;6.704;2023-08-01T06:40:28;5.53;;;5.00;;
2860;SDS011;1438;50.922;6.704;2023-08-01T06:42:53;8.73;;;6.37;;
2860;SDS011;1438;50.922;6.704;2023-08-01T06:45:19;8.00;;;5.03;;
2860;SDS011;1438;50.922;6.704;2023-08-01T06:47:44;7.77;;;5.63;;
2860;SDS011;1438;50.922;6.704;2023-08-01T06:50:10;16.17;;;5.23;;
2860;SDS011;1438;50.922;6.704;2023-08-01T06:52:36;8.50;;;5.43;;
2860;SDS011;1438;50.922;6.704;2023-08-01T06:55:01;10.00;;;5.50;;
2860;SDS011;1438;50.922;6.704;2023-08-01T06:57:27;8.83;;;5.50;;
2860;SDS011;1438;50.922;6.704;2023-08-01T06:59:52;11.60;;;6.00;;
2860;SDS011;1438;50.922;6.704;2023-08-01T07:02:18;6.70;;;4.57;;
2860;SDS011;1438;50.922;6.704;2023-08-01T07:04:43;16.80;;;6.67;;
2860;SDS011;1438;50.922;6.704;2023-08-01T07:07:09;6.83;;;5.50;;
2860;SDS011;1438;50.922;6.704;2023-08-01T07:09:35;7.77;;;5.40;;
2860;SDS011;1438;50.922;6.704;2023-08-01T07:12:00;8.10;;;5.40;;
2860;SDS011;1438;50.922;6.704;2023-08-01T07:14:26;10.63;;;5.97;;
2860;SDS011;1438;50.922;6.704;2023-08-01T07:16:51;8.50;;;5.60;;
2860;SDS011;1438;50.922;6.704;2023-08-01T07:19:17;12.53;;;6.47;;
2860;SDS011;1438;50.922;6.704;2023-08-01T07:21:42;7.97;;;6.23;;
2860;SDS011;1438;50.922;6.704;2023-08-01T07:24:11;10.00;;;5.40;;
2860;SDS011;1438;50.922;6.704;2023-08-01T07:26:38;7.73;;;6.20;;
2860;SDS011;1438;50.922;6.704;2023-08-01T07:29:04;11.17;;;6.47;;
2860;SDS011;1438;50.922;6.704;2023-08-01T07:31:30;8.20;;;5.13;;
2860;SDS011;1438;50.922;6.704;2023-08-01T07:33:55;8.10;;;5.47;;
2860;SDS011;1438;50.922;6.704;2023-08-01T07:36:21;10.60;;;5.17;;
2860;SDS011;1438;50.922;6.704;2023-08-01T07:38:47;7.47;;;4.97;;
2860;SDS011;1438;50.922;6.704;2023-08-01T07:41:12;8.63;;;5.67;;
2860;SDS011;1438;50.922;6.704;2023-08-01T07:43:38;11.83;;;5.77;;
2860;SDS011;1438;50.922;6.704;2023-08-01T07:46:03;6.23;;;5.63;;
2860;SDS011;1438;50.922;6.704;2023-08-01T07:48:29;6.67;;;5.27;;
2860;SDS011;1438;50.922;6.704;2023-08-01T07:50:55;9.10;;;5.10;;
2860;SDS011;1438;50.922;6.704;2023-08-01T07:53:20;10.67;;;5.30;;
2860;SDS011;1438;50.922;6.704;2023-08-01T07:55:46;6.63;;;5.17;;
2860;SDS011;1438;50.922;6.704;2023-08-01T07:58:12;7.90;;;4.70;;
2860;SDS011;1438;50.922;6.704;2023-08-01T08:00:37;7.07;;;5.10;;
2860;SDS011;1438;50.922;6.704;2023-08-01T08:03:03;6.00;;;5.07;;
2860;SDS011;1438;50.922;6.704;2023-08-01T08:05:30;6.83;;;5.33;;
2860;SDS011;1438;50.922;6.704;2023-08-01T08:07:56;12.10;;;5.90;;
2860;SDS011;1438;50.922;6.704;2023-08-01T08:10:22;7.47;;;5.60;;
2860;SDS011;1438;50.922;6.704;2023-08-01T08:12:47;8.20;;;4.90;;
2860;SDS011;1438;50.922;6.704;2023-08-01T08:15:15;8.60;;;6.00;;
2860;SDS011;1438;50.922;6.704;2023-08-01T08:17:41;7.97;;;5.20;;
2860;SDS011;1438;50.922;6.704;2023-08-01T08:20:07;10.50;;;5.87;;
2860;SDS011;1438;50.922;6.704;2023-08-01T08:22:33;9.37;;;6.00;;
2860;SDS011;1438;50.922;6.704;2023-08-01T08:24:58;8.40;;;6.27;;
2860;SDS011;1438;50.922;6.704;2023-08-01T08:27:24;10.73;;;6.07;;
2860;SDS011;1438;50.922;6.704;2023-08-01T08:29:50;7.77;;;5.20;;
2860;SDS011;1438;50.922;6.704;2023-08-01T08:32:16;9.23;;;5.13;;
2860;SDS011;1438;50.922;6.704;2023-08-01T08:34:41;7.37;;;4.50;;
2860;SDS011;1438;50.922;6.704;2023-08-01T08:37:07;8.63;;;4.80;;
2860;SDS011;1438;50.922;6.704;2023-08-01T08:39:32;11.60;;;4.93;;
2860;SDS011;1438;50.922;6.704;2023-08-01T08:41:58;9.00;;;5.20;;
2860;SDS011;1438;50.922;6.704;2023-08-01T08:44:24;6.33;;;4.33;;
2860;SDS011;1438;50.922;6.704;2023-08-01T08:46:51;8.87;;;5.03;;
2860;SDS011;1438;50.922;6.704;2023-08-01T08:49:18;8.10;;;4.20;;
2860;SDS011;1438;50.922;6.704;2023-08-01T08:51:45;5.00;;;3.63;;
2860;SDS011;1438;50.922;6.704;2023-08-01T08:54:12;5.33;;;3.80;;
2860;SDS011;1438;50.922;6.704;2023-08-01T08:56:39;8.77;;;3.93;;
2860;SDS011;1438;50.922;6.704;2023-08-01T08:59:08;9.07;;;4.10;;
2860;SDS011;1438;50.922;6.704;2023-08-01T09:01:37;5.50;;;3.37;;
2860;SDS011;1438;50.922;6.704;2023-08-01T09:04:03;7.00;;;3.47;;
2860;SDS011;1438;50.922;6.704;2023-08-01T09:06:40;8.33;;;4.17;;
2860;SDS011;1438;50.922;6.704;2023-08-01T09:09:13;5.57;;;3.87;;
2860;SDS011;1438;50.922;6.704;2023-08-01T09:11:46;6.87;;;3.70;;
2860;SDS011;1438;50.922;6.704;2023-08-01T09:14:14;9.10;;;4.23;;
2860;SDS011;1438;50.922;6.704;2023-08-01T09:16:40;8.90;;;4.20;;
2860;SDS011;1438;50.922;6.704;2023-08-01T09:19:07;11.37;;;4.80;;
2860;SDS011;1438;50.922;6.704;2023-08-01T09:21:34;4.73;;;3.90;;
2860;SDS011;1438;50.922;6.704;2023-08-01T09:24:10;9.27;;;3.83;;
2860;SDS011;1438;50.922;6.704;2023-08-01T09:26:37;6.13;;;3.93;;
2860;SDS011;1438;50.922;6.704;2023-08-01T09:29:03;6.97;;;3.97;;
2860;SDS011;1438;50.922;6.704;2023-08-01T09:31:30;4.80;;;3.00;;
2860;SDS011;1438;50.922;6.704;2023-08-01T09:33:58;5.97;;;3.30;;
2860;SDS011;1438;50.922;6.704;2023-08-01T09:36:24;4.97;;;3.37;;
2860;SDS011;1438;50.922;6.704;2023-08-01T09:38:50;5.90;;;3.10;;
2860;SDS011;1438;50.922;6.704;2023-08-01T09:41:19;6.63;;;3.20;;
2860;SDS011;1438;50.922;6.704;2023-08-01T09:43:48;5.97;;;2.77;;
2860;SDS011;1438;50.922;6.704;2023-08-01T09:46:15;4.27;;;2.83;;
2860;SDS011;1438;50.922;6.704;2023-08-01T09:48:41;7.30;;;2.70;;
2860;SDS011;1438;50.922;6.704;2023-08-01T09:51:10;4.87;;;3.50;;
2860;SDS011;1438;50.922;6.704;2023-08-01T09:53:50;7.60;;;2.97;;
2860;SDS011;1438;50.922;6.704;2023-08-01T09:58:51;3.80;;;3.00;;
2860;SDS011;1438;50.922;6.704;2023-08-01T10:01:19;6.73;;;2.90;;
2860;SDS011;1438;50.922;6.704;2023-08-01T10:03:47;8.53;;;3.23;;
2860;SDS011;1438;50.922;6.704;2023-08-01T10:06:14;7.43;;;2.67;;
2860;SDS011;1438;50.922;6.704;2023-08-01T10:08:44;5.33;;;3.77;;
2860;SDS011;1438;50.922;6.704;2023-08-01T10:11:11;6.10;;;2.80;;
2860;SDS011;1438;50.922;6.704;2023-08-01T10:13:38;5.70;;;3.10;;
2860;SDS011;1438;50.922;6.704;2023-08-01T10:16:04;7.00;;;3.60;;
2860;SDS011;1438;50.922;6.704;2023-08-01T10:18:31;7.33;;;3.27;;
2860;SDS011;1438;50.922;6.704;2023-08-01T10:20:57;5.60;;;3.13;;
2860;SDS011;1438;50.922;6.704;2023-08-01T10:23:29;6.17;;;2.97;;
2860;SDS011;1438;50.922;6.704;2023-08-01T10:26:00;3.50;;;2.97;;
2860;SDS011;1438;50.922;6.704;2023-08-01T10:28:33;9.70;;;2.90;;
2860;SDS011;1438;50.922;6.704;2023-08-01T10:31:13;4.23;;;2.40;;
2860;SDS011;1438;50.922;6.704;2023-08-01T10:34:02;8.83;;;2.50;;
2860;SDS011;1438;50.922;6.704;2023-08-01T10:36:34;4.70;;;2.60;;
2860;SDS011;1438;50.922;6.704;2023-08-01T10:39:01;4.60;;;2.27;;
2860;SDS011;1438;50.922;6.704;2023-08-01T10:41:32;3.00;;;2.13;;
2860;SDS011;1438;50.922;6.704;2023-08-01T10:49:15;6.40;;;2.40;;
2860;SDS011;1438;50.922;6.704;2023-08-01T10:51:44;4.27;;;2.57;;
2860;SDS011;1438;50.922;6.704;2023-08-01T10:54:22;6.27;;;2.57;;
2860;SDS011;1438;50.922;6.704;2023-08-01T10:56:50;4.57;;;2.47;;
2860;SDS011;1438;50.922;6.704;2023-08-01T10:59:23;2.93;;;2.17;;
2860;SDS011;1438;50.922;6.704;2023-08-01T11:02:19;3.60;;;2.10;;
2860;SDS011;1438;50.922;6.704;2023-08-01T11:08:08;5.27;;;1.80;;
2860;SDS011;1438;50.922;6.704;2023-08-01T11:10:34;3.20;;;2.27;;
2860;SDS011;1438;50.922;6.704;2023-08-01T11:13:10;6.60;;;2.13;;
2860;SDS011;1438;50.922;6.704;2023-08-01T11:15:37;4.60;;;2.10;;
2860;SDS011;1438;50.922;6.704;2023-08-01T11:18:02;3.00;;;2.17;;
2860;SDS011;1438;50.922;6.704;2023-08-01T11:20:29;3.67;;;2.27;;
2860;SDS011;1438;50.922;6.704;2023-08-01T11:22:56;3.37;;;2.37;;
2860;SDS011;1438;50.922;6.704;2023-08-01T11:25:35;3.93;;;2.23;;
2860;SDS011;1438;50.922;6.704;2023-08-01T11:28:05;4.93;;;2.50;;
2860;SDS011;1438;50.922;6.704;2023-08-01T11:30:32;3.17;;;1.90;;
2860;SDS011;1438;50.922;6.704;2023-08-01T11:32:58;3.80;;;1.83;;
2860;SDS011;1438;50.922;6.704;2023-08-01T11:35:25;3.30;;;2.20;;
2860;SDS011;1438;50.922;6.704;2023-08-01T11:37:51;3.90;;;2.40;;
2860;SDS011;1438;50.922;6.704;2023-08-01T11:40:17;2.83;;;1.50;;
2860;SDS011;1438;50.922;6.704;2023-08-01T11:42:43;4.07;;;1.90;;
2860;SDS011;1438;50.922;6.704;2023-08-01T11:45:13;7.00;;;2.77;;
2860;SDS011;1438;50.922;6.704;2023-08-01T11:47:46;5.27;;;2.37;;
2860;SDS011;1438;50.922;6.704;2023-08-01T11:50:13;5.77;;;2.57;;
2860;SDS011;1438;50.922;6.704;2023-08-01T11:52:39;2.73;;;2.20;;
2860;SDS011;1438;50.922;6.704;2023-08-01T11:55:05;3.27;;;2.00;;
2860;SDS011;1438;50.922;6.704;2023-08-01T11:57:31;5.50;;;2.67;;
2860;SDS011;1438;50.922;6.704;2023-08-01T11:59:57;2.80;;;1.73;;
2860;SDS011;1438;50.922;6.704;2023-08-01T12:04:52;3.43;;;1.80;;
2860;SDS011;1438;50.922;6.704;2023-08-01T12:07:19;3.80;;;1.90;;
2860;SDS011;1438;50.922;6.704;2023-08-01T12:09:54;4.00;;;1.80;;
2860;SDS011;1438;50.922;6.704;2023-08-01T12:12:25;2.93;;;1.53;;
2860;SDS011;1438;50.922;6.704;2023-08-01T12:14:52;2.97;;;1.63;;
2860;SDS011;1438;50.922;6.704;2023-08-01T12:17:18;3.73;;;2.03;;
2860;SDS011;1438;50.922;6.704;2023-08-01T12:19:44;3.40;;;1.67;;
2860;SDS011;1438;50.922;6.704;2023-08-01T12:22:11;4.27;;;1.60;;
2860;SDS011;1438;50.922;6.704;2023-08-01T12:24:37;5.60;;;2.30;;
2860;SDS011;1438;50.922;6.704;2023-08-01T12:27:05;7.63;;;2.93;;
2860;SDS011;1438;50.922;6.704;2023-08-01T12:29:31;15.03;;;3.97;;
2860;SDS011;1438;50.922;6.704;2023-08-01T12:31:56;3.27;;;2.77;;
2860;SDS011;1438;50.922;6.704;2023-08-01T12:34:22;4.13;;;2.50;;
2860;SDS011;1438;50.922;6.704;2023-08-01T12:36:48;9.30;;;2.30;;
2860;SDS011;1438;50.922;6.704;2023-08-01T12:39:13;3.73;;;2.23;;
2860;SDS011;1438;50.922;6.704;2023-08-01T12:41:39;12.37;;;2.77;;
2860;SDS011;1438;50.922;6.704;2023-08-01T12:44:04;3.77;;;2.43;;
2860;SDS011;1438;50.922;6.704;2023-08-01T12:46:30;3.80;;;2.30;;
2860;SDS011;1438;50.922;6.704;2023-08-01T12:48:56;2.10;;;1.57;;
2860;SDS011;1438;50.922;6.704;2023-08-01T12:51:22;3.37;;;2.37;;
2860;SDS011;1438;50.922;6.704;2023-08-01T12:53:50;3.10;;;1.43;;
2860;SDS011;1438;50.922;6.704;2023-08-01T12:56:15;3.77;;;1.80;;
2860;SDS011;1438;50.922;6.704;2023-08-01T12:58:41;5.93;;;2.40;;
2860;SDS011;1438;50.922;6.704;2023-08-01T13:01:07;6.73;;;2.00;;
2860;SDS011;1438;50.922;6.704;2023-08-01T13:03:32;2.70;;;1.67;;
2860;SDS011;1438;50.922;6.704;2023-08-01T13:05:58;3.10;;;1.77;;
2860;SDS011;1438;50.922;6.704;2023-08-01T13:08:24;6.03;;;1.90;;
2860;SDS011;1438;50.922;6.704;2023-08-01T13:10:49;3.90;;;1.70;;
2860;SDS011;1438;50.922;6.704;2023-08-01T13:13:15;2.50;;;1.40;;
2860;SDS011;1438;50.922;6.704;2023-08-01T13:15:41;4.90;;;2.00;;
2860;SDS011;1438;50.922;6.704;2023-08-01T13:18:07;5.20;;;1.80;;
2860;SDS011;1438;50.922;6.704;2023-08-01T13:20:34;2.40;;;1.60;;
2860;SDS011;1438;50.922;6.704;2023-08-01T13:22:59;3.00;;;1.87;;
2860;SDS011;1438;50.922;6.704;2023-08-01T13:25:27;4.00;;;2.30;;
2860;SDS011;1438;50.922;6.704;2023-08-01T13:27:53;3.30;;;1.60;;
2860;SDS011;1438;50.922;6.704;2023-08-01T13:30:18;2.33;;;1.60;;
2860;SDS011;1438;50.922;6.704;2023-08-01T13:32:45;8.13;;;2.03;;
2860;SDS011;1438;50.922;6.704;2023-08-01T13:35:11;5.00;;;2.17;;
2860;SDS011;1438;50.922;6.704;2023-08-01T13:37:36;3.40;;;1.87;;
2860;SDS011;1438;50.922;6.704;2023-08-01T13:40:02;3.07;;;1.70;;
2860;SDS011;1438;50.922;6.704;2023-08-01T13:42:28;4.20;;;1.77;;
2860;SDS011;1438;50.922;6.704;2023-08-01T13:44:55;6.70;;;2.20;;
2860;SDS011;1438;50.922;6.704;2023-08-01T13:47:21;4.43;;;2.00;;
2860;SDS011;1438;50.922;6.704;2023-08-01T13:49:46;5.10;;;1.90;;
2860;SDS011;1438;50.922;6.704;2023-08-01T13:52:12;3.47;;;2.20;;
2860;SDS011;1438;50.922;6.704;2023-08-01T13:54:38;5.93;;;2.30;;
2860;SDS011;1438;50.922;6.704;2023-08-01T13:57:03;4.50;;;2.40;;
2860;SDS011;1438;50.922;6.704;2023-08-01T13:59:29;3.97;;;2.10;;
2860;SDS011;1438;50.922;6.704;2023-08-01T14:01:56;5.23;;;2.87;;
2860;SDS011;1438;50.922;6.704;2023-08-01T14:04:22;4.93;;;2.00;;
2860;SDS011;1438;50.922;6.704;2023-08-01T14:06:47;3.50;;;2.13;;
2860;SDS011;1438;50.922;6.704;2023-08-01T14:09:13;6.47;;;2.20;;
2860;SDS011;1438;50.922;6.704;2023-08-01T14:11:39;6.23;;;2.50;;
2860;SDS011;1438;50.922;6.704;2023-08-01T14:14:04;3.93;;;1.60;;
2860;SDS011;1438;50.922;6.704;2023-08-01T14:16:30;10.77;;;2.60;;
2860;SDS011;1438;50.922;6.704;2023-08-01T14:18:56;4.27;;;2.00;;
2860;SDS011;1438;50.922;6.704;2023-08-01T14:21:22;6.97;;;2.17;;
2860;SDS011;1438;50.922;6.704;2023-08-01T14:23:47;8.53;;;2.93;;
2860;SDS011;1438;50.922;6.704;2023-08-01T14:26:13;3.33;;;1.93;;
2860;SDS011;1438;50.922;6.704;2023-08-01T14:28:39;7.07;;;2.37;;
2860;SDS011;1438;50.922;6.704;2023-08-01T14:31:04;3.43;;;2.17;;
2860;SDS011;1438;50.922;6.704;2023-08-01T14:33:30;3.33;;;1.90;;
2860;SDS011;1438;50.922;6.704;2023-08-01T14:35:56;6.53;;;2.00;;
2860;SDS011;1438;50.922;6.704;2023-08-01T14:38:22;5.13;;;1.63;;
2860;SDS011;1438;50.922;6.704;2023-08-01T14:40:48;4.63;;;1.80;;
2860;SDS011;1438;50.922;6.704;2023-08-01T14:43:13;6.50;;;2.40;;
2860;SDS011;1438;50.922;6.704;2023-08-01T14:45:39;5.87;;;1.67;;
2860;SDS011;1438;50.922;6.704;2023-08-01T14:48:06;4.40;;;1.90;;
2860;SDS011;1438;50.922;6.704;2023-08-01T14:50:32;4.60;;;2.10;;
2860;SDS011;1438;50.922;6.704;2023-08-01T14:52:57;7.70;;;2.30;;
2860;SDS011;1438;50.922;6.704;2023-08-01T14:55:23;4.60;;;1.97;;
2860;SDS011;1438;50.922;6.704;2023-08-01T14:57:48;4.80;;;2.30;;
2860;SDS011;1438;50.922;6.704;2023-08-01T15:00:14;5.97;;;2.37;;
2860;SDS011;1438;50.922;6.704;2023-08-01T15:02:41;4.53;;;1.70;;
2860;SDS011;1438;50.922;6.704;2023-08-01T15:05:06;4.83;;;1.90;;
2860;SDS011;1438;50.922;6.704;2023-08-01T15:07:32;4.83;;;2.10;;
2860;SDS011;1438;50.922;6.704;2023-08-01T15:09:58;12.47;;;2.73;;
2860;SDS011;1438;50.922;6.704;2023-08-01T15:12:23;4.10;;;1.97;;
2860;SDS011;1438;50.922;6.704;2023-08-01T15:14:51;7.67;;;2.67;;
2860;SDS011;1438;50.922;6.704;2023-08-01T15:17:20;2.77;;;1.67;;
2860;SDS011;1438;50.922;6.704;2023-08-01T15:19:45;3.93;;;1.80;;
2860;SDS011;1438;50.922;6.704;2023-08-01T15:22:21;5.17;;;2.43;;